Terminal Aerodrome Forecast
Issued by NWS Knoxville/Tri Cities, TN

Home | Current Version | Previous Version | Text Only | Print | Product List | Glossary On
Versions: 1 2 3 4 5 6 7 8 9 10 11 12 13 14 15 16 17 18 19 20 21 22 23 24
000
FTUS44 KMRX 020540
TAFTYS
TAF
KTYS 020540Z 0206/0306 25005KT 1 1/2SM BR OVC004
      TEMPO 0207/0211 3SM BR OVC007
     FM021100 33006KT 3SM -DZ BR BKN007 OVC015
     FM021400 02008KT P6SM OVC015
     FM021800 02008KT P6SM BKN035
     FM030100 03004KT P6SM BKN080=

USA.gov is the U.S. government's official web portal to all federal, state and local government web resources and services.